Terminal Aerodrome Forecast
Issued by NWS

Home | Current Version | Previous Version | Text Only | Print | Product List | Glossary On
Versions: 1 2 3 4 5 6 7 8 9 10 11 12 13 14 15 16 17 18 19 20 21 22 23 24 25 26 27 28 29 30 31 32 33 34 35 36
000
FTUS43 KFGF 240520
TAFTVF
TAF
KTVF 240520Z 2406/2506 08015KT P6SM BKN008 OVC015
     FM240900 07014KT P6SM OVC010
     FM241600 07014KT 4SM -RA BKN015 OVC025
     FM250100 02012KT 5SM -RA BR OVC015=

USA.gov is the U.S. government's official web portal to all federal, state and local government web resources and services.